sensor_id;sensor_type;location;lat;lon;timestamp;temperature;humidity
57030;DHT22;42920;45.306;20.448;2023-12-29T00:02:20;179.50;2252.80
57030;DHT22;42920;45.306;20.448;2023-12-29T00:04:46;179.50;2252.80
57030;DHT22;42920;45.306;20.448;2023-12-29T00:07:12;179.60;2252.80
57030;DHT22;42920;45.306;20.448;2023-12-29T00:09:38;179.70;2252.80
57030;DHT22;42920;45.306;20.448;2023-12-29T00:12:06;179.90;2252.80
57030;DHT22;42920;45.306;20.448;2023-12-29T00:14:32;179.80;2252.80
57030;DHT22;42920;45.306;20.448;2023-12-29T00:16:57;179.80;2252.80
57030;DHT22;42920;45.306;20.448;2023-12-29T00:19:23;179.90;2252.80
57030;DHT22;42920;45.306;20.448;2023-12-29T00:21:49;179.90;2252.80
57030;DHT22;42920;45.306;20.448;2023-12-29T00:24:14;179.90;2252.80
57030;DHT22;42920;45.306;20.448;2023-12-29T00:26:40;179.60;2252.80
57030;DHT22;42920;45.306;20.448;2023-12-29T00:29:05;179.60;2252.80
57030;DHT22;42920;45.306;20.448;2023-12-29T00:31:32;179.50;2252.80
57030;DHT22;42920;45.306;20.448;2023-12-29T00:33:57;179.30;2252.80
57030;DHT22;42920;45.306;20.448;2023-12-29T00:36:23;179.20;2252.80
57030;DHT22;42920;45.306;20.448;2023-12-29T00:38:49;154.50;2252.80
57030;DHT22;42920;45.306;20.448;2023-12-29T00:41:15;154.50;2252.80
57030;DHT22;42920;45.306;20.448;2023-12-29T00:43:41;154.30;2252.80
57030;DHT22;42920;45.306;20.448;2023-12-29T00:46:07;154.20;2252.80
57030;DHT22;42920;45.306;20.448;2023-12-29T00:48:33;154.30;2252.80
57030;DHT22;42920;45.306;20.448;2023-12-29T00:51:02;154.50;2252.80
57030;DHT22;42920;45.306;20.448;2023-12-29T00:53:28;154.50;2252.80
57030;DHT22;42920;45.306;20.448;2023-12-29T00:55:59;179.30;2252.80
57030;DHT22;42920;45.306;20.448;2023-12-29T00:58:24;179.30;2252.80
57030;DHT22;42920;45.306;20.448;2023-12-29T01:00:50;179.40;2252.80
57030;DHT22;42920;45.306;20.448;2023-12-29T01:03:16;179.30;2252.80
57030;DHT22;42920;45.306;20.448;2023-12-29T01:05:41;179.40;2252.80
57030;DHT22;42920;45.306;20.448;2023-12-29T01:08:07;179.50;2252.80
57030;DHT22;42920;45.306;20.448;2023-12-29T01:10:32;179.50;2252.80
57030;DHT22;42920;45.306;20.448;2023-12-29T01:12:58;179.40;2252.80
57030;DHT22;42920;45.306;20.448;2023-12-29T01:15:23;179.30;2252.80
57030;DHT22;42920;45.306;20.448;2023-12-29T01:17:49;179.40;2252.80
57030;DHT22;42920;45.306;20.448;2023-12-29T01:20:15;179.30;2252.80
57030;DHT22;42920;45.306;20.448;2023-12-29T01:22:40;179.40;2252.80
57030;DHT22;42920;45.306;20.448;2023-12-29T01:25:06;179.40;2252.80
57030;DHT22;42920;45.306;20.448;2023-12-29T01:27:32;179.40;2252.80
57030;DHT22;42920;45.306;20.448;2023-12-29T01:29:57;179.50;2252.80
57030;DHT22;42920;45.306;20.448;2023-12-29T01:32:23;179.50;2252.80
57030;DHT22;42920;45.306;20.448;2023-12-29T01:34:49;179.50;2252.80
57030;DHT22;42920;45.306;20.448;2023-12-29T01:37:14;179.50;2252.80
57030;DHT22;42920;45.306;20.448;2023-12-29T01:39:40;179.40;2252.80
57030;DHT22;42920;45.306;20.448;2023-12-29T01:42:06;179.40;2252.80
57030;DHT22;42920;45.306;20.448;2023-12-29T01:44:32;179.30;2252.80
57030;DHT22;42920;45.306;20.448;2023-12-29T01:47:01;154.50;2252.80
57030;DHT22;42920;45.306;20.448;2023-12-29T01:49:26;179.30;2252.80
57030;DHT22;42920;45.306;20.448;2023-12-29T01:51:54;154.50;2252.80
57030;DHT22;42920;45.306;20.448;2023-12-29T01:54:20;154.30;2252.80
57030;DHT22;42920;45.306;20.448;2023-12-29T01:56:46;179.20;2252.80
57030;DHT22;42920;45.306;20.448;2023-12-29T01:59:12;154.10;2252.80
57030;DHT22;42920;45.306;20.448;2023-12-29T02:01:38;154.10;2252.80
57030;DHT22;42920;45.306;20.448;2023-12-29T02:04:06;154.10;2252.80
57030;DHT22;42920;45.306;20.448;2023-12-29T02:06:32;154.10;2252.80
57030;DHT22;42920;45.306;20.448;2023-12-29T02:08:59;154.10;2252.80
57030;DHT22;42920;45.306;20.448;2023-12-29T02:11:24;154.10;2252.80
57030;DHT22;42920;45.306;20.448;2023-12-29T02:13:50;154.10;2252.80
57030;DHT22;42920;45.306;20.448;2023-12-29T02:19:09;153.90;2252.80
57030;DHT22;42920;45.306;20.448;2023-12-29T02:21:39;153.90;1971.20
57030;DHT22;42920;45.306;20.448;2023-12-29T02:24:04;153.80;2022.40
57030;DHT22;42920;45.306;20.448;2023-12-29T02:26:30;153.70;2252.80
57030;DHT22;42920;45.306;20.448;2023-12-29T02:28:57;153.60;2252.80
57030;DHT22;42920;45.306;20.448;2023-12-29T02:31:25;153.60;2252.80
57030;DHT22;42920;45.306;20.448;2023-12-29T02:33:52;128.90;2252.80
57030;DHT22;42920;45.306;20.448;2023-12-29T02:36:19;128.90;2252.80
57030;DHT22;42920;45.306;20.448;2023-12-29T02:38:47;128.90;2252.80
57030;DHT22;42920;45.306;20.448;2023-12-29T02:41:13;128.80;2252.80
57030;DHT22;42920;45.306;20.448;2023-12-29T02:43:39;128.90;2252.80
57030;DHT22;42920;45.306;20.448;2023-12-29T02:46:04;153.60;1996.80
57030;DHT22;42920;45.306;20.448;2023-12-29T02:48:30;153.60;1868.80
57030;DHT22;42920;45.306;20.448;2023-12-29T02:50:55;153.70;2252.80
57030;DHT22;42920;45.306;20.448;2023-12-29T02:53:21;153.70;2252.80
57030;DHT22;42920;45.306;20.448;2023-12-29T02:55:47;153.70;2252.80
57030;DHT22;42920;45.306;20.448;2023-12-29T02:58:12;153.70;2252.80
57030;DHT22;42920;45.306;20.448;2023-12-29T03:00:38;153.70;2252.80
57030;DHT22;42920;45.306;20.448;2023-12-29T03:03:03;128.90;2252.80
57030;DHT22;42920;45.306;20.448;2023-12-29T03:05:29;128.70;2252.80
57030;DHT22;42920;45.306;20.448;2023-12-29T03:07:55;128.70;2252.80
57030;DHT22;42920;45.306;20.448;2023-12-29T03:10:20;128.70;2252.80
57030;DHT22;42920;45.306;20.448;2023-12-29T03:12:46;128.80;2252.80
57030;DHT22;42920;45.306;20.448;2023-12-29T03:15:11;128.80;2150.40
57030;DHT22;42920;45.306;20.448;2023-12-29T03:17:37;128.90;2252.80
57030;DHT22;42920;45.306;20.448;2023-12-29T03:20:03;128.90;2252.80
57030;DHT22;42920;45.306;20.448;2023-12-29T03:22:30;128.70;1894.40
57030;DHT22;42920;45.306;20.448;2023-12-29T03:24:55;128.60;2252.80
57030;DHT22;42920;45.306;20.448;2023-12-29T03:27:21;128.60;2252.80
57030;DHT22;42920;45.306;20.448;2023-12-29T03:29:46;128.60;2099.20
57030;DHT22;42920;45.306;20.448;2023-12-29T03:32:12;128.60;2252.80
57030;DHT22;42920;45.306;20.448;2023-12-29T03:34:38;128.50;2252.80
57030;DHT22;42920;45.306;20.448;2023-12-29T03:37:03;128.50;1894.40
57030;DHT22;42920;45.306;20.448;2023-12-29T03:39:29;128.40;2176.00
57030;DHT22;42920;45.306;20.448;2023-12-29T03:41:55;128.50;2252.80
57030;DHT22;42920;45.306;20.448;2023-12-29T03:44:20;128.50;2252.80
57030;DHT22;42920;45.306;20.448;2023-12-29T03:46:46;128.50;2252.80
57030;DHT22;42920;45.306;20.448;2023-12-29T03:49:12;128.60;2252.80
57030;DHT22;42920;45.306;20.448;2023-12-29T03:51:37;128.70;2252.80
57030;DHT22;42920;45.306;20.448;2023-12-29T03:54:03;128.60;2099.20
57030;DHT22;42920;45.306;20.448;2023-12-29T03:56:29;128.60;2201.60
57030;DHT22;42920;45.306;20.448;2023-12-29T03:58:54;128.70;2252.80
57030;DHT22;42920;45.306;20.448;2023-12-29T04:01:20;128.80;2150.40
57030;DHT22;42920;45.306;20.448;2023-12-29T04:03:46;128.90;2252.80
57030;DHT22;42920;45.306;20.448;2023-12-29T04:06:11;153.70;2252.80
57030;DHT22;42920;45.306;20.448;2023-12-29T04:08:37;153.70;2073.60
57030;DHT22;42920;45.306;20.448;2023-12-29T04:11:03;153.80;2252.80
57030;DHT22;42920;45.306;20.448;2023-12-29T04:13:29;153.80;2124.80
57030;DHT22;42920;45.306;20.448;2023-12-29T04:15:55;153.80;1920.00
57030;DHT22;42920;45.306;20.448;2023-12-29T04:18:21;153.90;2176.00
57030;DHT22;42920;45.306;20.448;2023-12-29T04:20:47;154.10;2252.80
57030;DHT22;42920;45.306;20.448;2023-12-29T04:23:12;154.10;2252.80
57030;DHT22;42920;45.306;20.448;2023-12-29T04:25:38;154.30;2252.80
57030;DHT22;42920;45.306;20.448;2023-12-29T04:28:04;154.20;2252.80
57030;DHT22;42920;45.306;20.448;2023-12-29T04:30:30;154.20;2252.80
57030;DHT22;42920;45.306;20.448;2023-12-29T04:32:55;154.20;2252.80
57030;DHT22;42920;45.306;20.448;2023-12-29T04:35:21;154.00;2252.80
57030;DHT22;42920;45.306;20.448;2023-12-29T04:37:46;154.00;2252.80
57030;DHT22;42920;45.306;20.448;2023-12-29T04:40:12;153.80;2252.80
57030;DHT22;42920;45.306;20.448;2023-12-29T04:42:38;153.90;2252.80
57030;DHT22;42920;45.306;20.448;2023-12-29T04:45:04;153.80;2252.80
57030;DHT22;42920;45.306;20.448;2023-12-29T04:47:30;153.80;2252.80
57030;DHT22;42920;45.306;20.448;2023-12-29T04:49:55;153.90;2252.80
57030;DHT22;42920;45.306;20.448;2023-12-29T04:52:21;153.80;2252.80
57030;DHT22;42920;45.306;20.448;2023-12-29T04:54:47;153.80;2252.80
57030;DHT22;42920;45.306;20.448;2023-12-29T04:57:12;153.90;2252.80
57030;DHT22;42920;45.306;20.448;2023-12-29T04:59:38;153.80;2252.80
57030;DHT22;42920;45.306;20.448;2023-12-29T05:02:04;153.70;2252.80
57030;DHT22;42920;45.306;20.448;2023-12-29T05:04:29;153.90;2252.80
57030;DHT22;42920;45.306;20.448;2023-12-29T05:06:55;153.80;2252.80
57030;DHT22;42920;45.306;20.448;2023-12-29T05:09:21;153.80;2252.80
57030;DHT22;42920;45.306;20.448;2023-12-29T05:11:47;153.60;2252.80
57030;DHT22;42920;45.306;20.448;2023-12-29T05:14:13;128.90;2252.80
57030;DHT22;42920;45.306;20.448;2023-12-29T05:16:39;128.90;2252.80
57030;DHT22;42920;45.306;20.448;2023-12-29T05:19:05;128.80;2252.80
57030;DHT22;42920;45.306;20.448;2023-12-29T05:21:30;128.70;2252.80
57030;DHT22;42920;45.306;20.448;2023-12-29T05:23:56;128.70;2252.80
57030;DHT22;42920;45.306;20.448;2023-12-29T05:26:22;128.60;2252.80
57030;DHT22;42920;45.306;20.448;2023-12-29T05:28:47;128.50;2252.80
57030;DHT22;42920;45.306;20.448;2023-12-29T05:31:13;128.40;2099.20
57030;DHT22;42920;45.306;20.448;2023-12-29T05:33:38;128.40;2048.00
57030;DHT22;42920;45.306;20.448;2023-12-29T05:36:07;128.40;2252.80
57030;DHT22;42920;45.306;20.448;2023-12-29T05:38:33;128.50;2252.80
57030;DHT22;42920;45.306;20.448;2023-12-29T05:41:00;128.60;2252.80
57030;DHT22;42920;45.306;20.448;2023-12-29T05:43:33;128.70;2252.80
57030;DHT22;42920;45.306;20.448;2023-12-29T05:45:59;128.80;2252.80
57030;DHT22;42920;45.306;20.448;2023-12-29T05:48:25;128.70;2252.80
57030;DHT22;42920;45.306;20.448;2023-12-29T05:50:51;128.80;2252.80
57030;DHT22;42920;45.306;20.448;2023-12-29T05:53:16;128.80;2252.80
57030;DHT22;42920;45.306;20.448;2023-12-29T05:55:43;128.70;2252.80
57030;DHT22;42920;45.306;20.448;2023-12-29T05:58:08;128.70;2252.80
57030;DHT22;42920;45.306;20.448;2023-12-29T06:00:36;128.60;2252.80
57030;DHT22;42920;45.306;20.448;2023-12-29T06:03:02;128.60;2252.80
57030;DHT22;42920;45.306;20.448;2023-12-29T06:05:29;128.50;2252.80
57030;DHT22;42920;45.306;20.448;2023-12-29T06:07:55;128.40;2252.80
57030;DHT22;42920;45.306;20.448;2023-12-29T06:10:20;128.50;1971.20
57030;DHT22;42920;45.306;20.448;2023-12-29T06:12:46;128.40;2252.80
57030;DHT22;42920;45.306;20.448;2023-12-29T06:15:12;128.40;2252.80
57030;DHT22;42920;45.306;20.448;2023-12-29T06:17:38;128.40;2252.80
57030;DHT22;42920;45.306;20.448;2023-12-29T06:20:06;128.30;2252.80
57030;DHT22;42920;45.306;20.448;2023-12-29T06:22:32;128.20;2252.80
57030;DHT22;42920;45.306;20.448;2023-12-29T06:24:58;128.20;2252.80
57030;DHT22;42920;45.306;20.448;2023-12-29T06:27:24;128.30;2252.80
57030;DHT22;42920;45.306;20.448;2023-12-29T06:29:50;128.20;2252.80
57030;DHT22;42920;45.306;20.448;2023-12-29T06:32:16;128.30;2252.80
57030;DHT22;42920;45.306;20.448;2023-12-29T06:34:41;128.30;2252.80
57030;DHT22;42920;45.306;20.448;2023-12-29T06:37:07;128.40;2252.80
57030;DHT22;42920;45.306;20.448;2023-12-29T06:39:32;128.50;2252.80
57030;DHT22;42920;45.306;20.448;2023-12-29T06:41:58;128.20;2252.80
57030;DHT22;42920;45.306;20.448;2023-12-29T06:44:24;128.20;1920.00
57030;DHT22;42920;45.306;20.448;2023-12-29T06:46:49;128.20;1945.60
57030;DHT22;42920;45.306;20.448;2023-12-29T06:49:15;128.30;2099.20
57030;DHT22;42920;45.306;20.448;2023-12-29T06:51:40;128.50;2252.80
57030;DHT22;42920;45.306;20.448;2023-12-29T06:54:06;128.50;2252.80
57030;DHT22;42920;45.306;20.448;2023-12-29T06:56:32;128.50;2252.80
57030;DHT22;42920;45.306;20.448;2023-12-29T06:58:58;128.70;2252.80
57030;DHT22;42920;45.306;20.448;2023-12-29T07:01:23;128.60;2252.80
57030;DHT22;42920;45.306;20.448;2023-12-29T07:03:49;128.40;2252.80
57030;DHT22;42920;45.306;20.448;2023-12-29T07:06:15;128.40;2252.80
57030;DHT22;42920;45.306;20.448;2023-12-29T07:08:41;128.50;2252.80
57030;DHT22;42920;45.306;20.448;2023-12-29T07:11:10;128.60;2252.80
57030;DHT22;42920;45.306;20.448;2023-12-29T07:13:36;128.70;2252.80
57030;DHT22;42920;45.306;20.448;2023-12-29T07:16:02;128.80;2252.80
57030;DHT22;42920;45.306;20.448;2023-12-29T07:18:28;128.90;2252.80
57030;DHT22;42920;45.306;20.448;2023-12-29T07:20:53;128.90;2252.80
57030;DHT22;42920;45.306;20.448;2023-12-29T07:23:19;128.90;2252.80
57030;DHT22;42920;45.306;20.448;2023-12-29T07:25:45;128.90;2252.80
57030;DHT22;42920;45.306;20.448;2023-12-29T07:28:10;128.90;2252.80
57030;DHT22;42920;45.306;20.448;2023-12-29T07:30:36;128.90;2252.80
57030;DHT22;42920;45.306;20.448;2023-12-29T07:33:01;153.60;2252.80
57030;DHT22;42920;45.306;20.448;2023-12-29T07:35:27;153.80;2252.80
57030;DHT22;42920;45.306;20.448;2023-12-29T07:37:53;153.80;2252.80
57030;DHT22;42920;45.306;20.448;2023-12-29T07:40:19;153.90;2252.80
57030;DHT22;42920;45.306;20.448;2023-12-29T07:42:45;153.80;2252.80
57030;DHT22;42920;45.306;20.448;2023-12-29T07:45:12;154.00;2252.80
57030;DHT22;42920;45.306;20.448;2023-12-29T07:47:37;154.00;2252.80
57030;DHT22;42920;45.306;20.448;2023-12-29T07:50:03;154.20;2252.80
57030;DHT22;42920;45.306;20.448;2023-12-29T07:52:30;154.10;2252.80
57030;DHT22;42920;45.306;20.448;2023-12-29T07:54:55;154.20;2252.80
57030;DHT22;42920;45.306;20.448;2023-12-29T07:57:21;154.10;2252.80
57030;DHT22;42920;45.306;20.448;2023-12-29T07:59:46;154.10;2252.80
57030;DHT22;42920;45.306;20.448;2023-12-29T08:02:12;154.00;2252.80
57030;DHT22;42920;45.306;20.448;2023-12-29T08:04:38;154.00;2252.80
57030;DHT22;42920;45.306;20.448;2023-12-29T08:07:04;154.10;2252.80
57030;DHT22;42920;45.306;20.448;2023-12-29T08:09:30;154.10;2252.80
57030;DHT22;42920;45.306;20.448;2023-12-29T08:11:55;154.10;2252.80
57030;DHT22;42920;45.306;20.448;2023-12-29T08:14:21;154.10;2252.80
57030;DHT22;42920;45.306;20.448;2023-12-29T08:16:47;154.10;2252.80
57030;DHT22;42920;45.306;20.448;2023-12-29T08:19:12;154.30;2252.80
57030;DHT22;42920;45.306;20.448;2023-12-29T08:21:40;154.30;2252.80
57030;DHT22;42920;45.306;20.448;2023-12-29T08:24:05;154.50;2252.80
57030;DHT22;42920;45.306;20.448;2023-12-29T08:26:31;179.20;2252.80
57030;DHT22;42920;45.306;20.448;2023-12-29T08:28:57;179.30;2252.80
57030;DHT22;42920;45.306;20.448;2023-12-29T08:31:22;179.40;2252.80
57030;DHT22;42920;45.306;20.448;2023-12-29T08:33:48;180.00;2252.80
57030;DHT22;42920;45.306;20.448;2023-12-29T08:36:17;179.60;2252.80
57030;DHT22;42920;45.306;20.448;2023-12-29T08:38:43;179.70;2252.80
57030;DHT22;42920;45.306;20.448;2023-12-29T08:41:08;179.80;2252.80
57030;DHT22;42920;45.306;20.448;2023-12-29T08:43:34;179.90;2252.80
57030;DHT22;42920;45.306;20.448;2023-12-29T08:46:01;180.00;2252.80
57030;DHT22;42920;45.306;20.448;2023-12-29T08:48:27;180.00;2252.80
57030;DHT22;42920;45.306;20.448;2023-12-29T08:50:52;180.00;2252.80
57030;DHT22;42920;45.306;20.448;2023-12-29T08:53:18;180.10;2252.80
57030;DHT22;42920;45.306;20.448;2023-12-29T08:55:44;180.10;2252.80
57030;DHT22;42920;45.306;20.448;2023-12-29T08:58:10;204.90;2252.80
57030;DHT22;42920;45.306;20.448;2023-12-29T09:00:36;205.20;2252.80
57030;DHT22;42920;45.306;20.448;2023-12-29T09:03:02;230.80;2252.80
57030;DHT22;42920;45.306;20.448;2023-12-29T09:05:28;205.40;2252.80
57030;DHT22;42920;45.306;20.448;2023-12-29T09:07:54;205.50;2252.80
57030;DHT22;42920;45.306;20.448;2023-12-29T09:10:19;205.60;2252.80
57030;DHT22;42920;45.306;20.448;2023-12-29T09:12:46;205.70;2252.80
57030;DHT22;42920;45.306;20.448;2023-12-29T09:15:12;230.40;2252.80
57030;DHT22;42920;45.306;20.448;2023-12-29T09:17:37;230.50;2252.80
57030;DHT22;42920;45.306;20.448;2023-12-29T09:20:03;230.60;2252.80
57030;DHT22;42920;45.306;20.448;2023-12-29T09:22:29;230.60;2252.80
57030;DHT22;42920;45.306;20.448;2023-12-29T09:24:55;230.80;2252.80
57030;DHT22;42920;45.306;20.448;2023-12-29T09:27:21;230.90;2252.80
57030;DHT22;42920;45.306;20.448;2023-12-29T09:29:46;230.80;2252.80
57030;DHT22;42920;45.306;20.448;2023-12-29T09:32:12;230.90;2252.80
57030;DHT22;42920;45.306;20.448;2023-12-29T09:34:37;231.00;2252.80
57030;DHT22;42920;45.306;20.448;2023-12-29T09:37:03;231.10;2252.80
57030;DHT22;42920;45.306;20.448;2023-12-29T09:39:29;256.20;2252.80
57030;DHT22;42920;45.306;20.448;2023-12-29T09:41:56;256.10;2252.80
57030;DHT22;42920;45.306;20.448;2023-12-29T09:44:23;256.30;2252.80
57030;DHT22;42920;45.306;20.448;2023-12-29T09:46:49;256.50;2252.80
57030;DHT22;42920;45.306;20.448;2023-12-29T09:49:15;256.40;2252.80
57030;DHT22;42920;45.306;20.448;2023-12-29T09:51:42;256.50;2252.80
57030;DHT22;42920;45.306;20.448;2023-12-29T09:54:08;256.50;2252.80
57030;DHT22;42920;45.306;20.448;2023-12-29T09:56:34;256.50;2252.80
57030;DHT22;42920;45.306;20.448;2023-12-29T09:58:59;256.70;2252.80
57030;DHT22;42920;45.306;20.448;2023-12-29T10:01:26;256.80;2252.80
57030;DHT22;42920;45.306;20.448;2023-12-29T10:03:54;281.60;2278.40
57030;DHT22;42920;45.306;20.448;2023-12-29T10:06:21;281.60;2278.40
57030;DHT22;42920;45.306;20.448;2023-12-29T10:08:49;281.60;2278.40
57030;DHT22;42920;45.306;20.448;2023-12-29T10:11:18;281.60;2278.40
57030;DHT22;42920;45.306;20.448;2023-12-29T10:13:50;256.90;2252.80
57030;DHT22;42920;45.306;20.448;2023-12-29T10:16:24;281.60;2278.40
57030;DHT22;42920;45.306;20.448;2023-12-29T10:26:18;281.90;2278.40
57030;DHT22;42920;45.306;20.448;2023-12-29T10:28:44;282.00;2278.40
57030;DHT22;42920;45.306;20.448;2023-12-29T10:31:16;282.10;2278.40
57030;DHT22;42920;45.306;20.448;2023-12-29T10:33:41;282.00;2278.40
57030;DHT22;42920;45.306;20.448;2023-12-29T10:36:07;282.10;2278.40
57030;DHT22;42920;45.306;20.448;2023-12-29T10:38:34;282.10;2278.40
57030;DHT22;42920;45.306;20.448;2023-12-29T10:41:16;282.00;2278.40
57030;DHT22;42920;45.306;20.448;2023-12-29T10:43:43;282.00;2278.40
57030;DHT22;42920;45.306;20.448;2023-12-29T10:46:10;282.20;2278.40
57030;DHT22;42920;45.306;20.448;2023-12-29T10:48:36;282.10;2278.40
57030;DHT22;42920;45.306;20.448;2023-12-29T10:51:02;307.20;2304.00
57030;DHT22;42920;45.306;20.448;2023-12-29T10:53:29;282.20;2278.40
57030;DHT22;42920;45.306;20.448;2023-12-29T10:55:55;282.30;2278.40
57030;DHT22;42920;45.306;20.448;2023-12-29T10:58:21;282.40;2278.40
57030;DHT22;42920;45.306;20.448;2023-12-29T11:00:46;282.40;2278.40
57030;DHT22;42920;45.306;20.448;2023-12-29T11:03:14;282.50;2278.40
57030;DHT22;42920;45.306;20.448;2023-12-29T11:05:40;307.30;2304.00
57030;DHT22;42920;45.306;20.448;2023-12-29T11:08:14;307.30;2304.00
57030;DHT22;42920;45.306;20.448;2023-12-29T11:10:40;307.30;2304.00
57030;DHT22;42920;45.306;20.448;2023-12-29T11:13:06;307.40;2304.00
57030;DHT22;42920;45.306;20.448;2023-12-29T11:15:32;307.50;2304.00
57030;DHT22;42920;45.306;20.448;2023-12-29T11:17:58;307.60;2304.00
57030;DHT22;42920;45.306;20.448;2023-12-29T11:20:25;307.60;2304.00
57030;DHT22;42920;45.306;20.448;2023-12-29T11:22:51;307.60;2304.00
57030;DHT22;42920;45.306;20.448;2023-12-29T11:25:17;307.50;2304.00
57030;DHT22;42920;45.306;20.448;2023-12-29T11:27:43;307.60;2304.00
57030;DHT22;42920;45.306;20.448;2023-12-29T11:30:08;307.50;2304.00
57030;DHT22;42920;45.306;20.448;2023-12-29T11:32:39;307.50;2304.00
57030;DHT22;42920;45.306;20.448;2023-12-29T11:35:12;307.50;2304.00
57030;DHT22;42920;45.306;20.448;2023-12-29T11:38:24;307.50;2304.00
57030;DHT22;42920;45.306;20.448;2023-12-29T11:40:33;307.60;2304.00
57030;DHT22;42920;45.306;20.448;2023-12-29T11:43:04;307.70;2304.00
57030;DHT22;42920;45.306;20.448;2023-12-29T11:45:33;307.80;2304.00
57030;DHT22;42920;45.306;20.448;2023-12-29T11:48:01;307.90;2304.00
57030;DHT22;42920;45.306;20.448;2023-12-29T12:02:38;308.10;2304.00
57030;DHT22;42920;45.306;20.448;2023-12-29T12:05:04;308.10;2304.00
57030;DHT22;42920;45.306;20.448;2023-12-29T12:12:41;308.00;2304.00
57030;DHT22;42920;45.306;20.448;2023-12-29T12:17:52;308.00;2304.00
57030;DHT22;42920;45.306;20.448;2023-12-29T12:20:18;307.90;2304.00
57030;DHT22;42920;45.306;20.448;2023-12-29T12:22:44;307.90;2304.00
57030;DHT22;42920;45.306;20.448;2023-12-29T12:25:11;307.90;2304.00
57030;DHT22;42920;45.306;20.448;2023-12-29T12:27:37;307.90;2304.00
57030;DHT22;42920;45.306;20.448;2023-12-29T12:30:12;307.80;2304.00
57030;DHT22;42920;45.306;20.448;2023-12-29T12:32:44;307.80;2304.00
57030;DHT22;42920;45.306;20.448;2023-12-29T12:35:15;307.80;2304.00
57030;DHT22;42920;45.306;20.448;2023-12-29T12:37:41;307.90;2304.00
57030;DHT22;42920;45.306;20.448;2023-12-29T12:40:07;307.80;2304.00
57030;DHT22;42920;45.306;20.448;2023-12-29T12:42:38;307.80;2304.00
57030;DHT22;42920;45.306;20.448;2023-12-29T12:45:11;307.80;2304.00
57030;DHT22;42920;45.306;20.448;2023-12-29T12:47:44;307.70;2304.00
57030;DHT22;42920;45.306;20.448;2023-12-29T12:50:11;307.70;2304.00
57030;DHT22;42920;45.306;20.448;2023-12-29T12:52:37;307.80;2304.00
57030;DHT22;42920;45.306;20.448;2023-12-29T12:55:04;307.80;2304.00
57030;DHT22;42920;45.306;20.448;2023-12-29T12:57:30;307.70;2304.00
57030;DHT22;42920;45.306;20.448;2023-12-29T12:59:56;307.70;2304.00
57030;DHT22;42920;45.306;20.448;2023-12-29T13:02:22;307.80;2304.00
57030;DHT22;42920;45.306;20.448;2023-12-29T13:04:48;307.80;2304.00
57030;DHT22;42920;45.306;20.448;2023-12-29T13:07:16;307.70;2304.00
57030;DHT22;42920;45.306;20.448;2023-12-29T13:09:43;307.80;2304.00
57030;DHT22;42920;45.306;20.448;2023-12-29T13:12:09;307.70;2304.00
57030;DHT22;42920;45.306;20.448;2023-12-29T13:14:35;307.80;2304.00
57030;DHT22;42920;45.306;20.448;2023-12-29T13:17:05;307.70;2304.00
57030;DHT22;42920;45.306;20.448;2023-12-29T13:19:30;307.70;2304.00
57030;DHT22;42920;45.306;20.448;2023-12-29T13:21:56;307.70;2304.00
57030;DHT22;42920;45.306;20.448;2023-12-29T13:24:22;307.70;2304.00
57030;DHT22;42920;45.306;20.448;2023-12-29T13:26:50;307.70;2304.00
57030;DHT22;42920;45.306;20.448;2023-12-29T13:29:21;307.70;2304.00
57030;DHT22;42920;45.306;20.448;2023-12-29T13:31:50;307.70;2304.00
57030;DHT22;42920;45.306;20.448;2023-12-29T13:34:19;307.70;2304.00
57030;DHT22;42920;45.306;20.448;2023-12-29T13:39:23;307.60;2304.00
57030;DHT22;42920;45.306;20.448;2023-12-29T13:41:53;307.60;2304.00
57030;DHT22;42920;45.306;20.448;2023-12-29T13:44:19;307.60;2304.00
57030;DHT22;42920;45.306;20.448;2023-12-29T13:46:47;307.60;2304.00
57030;DHT22;42920;45.306;20.448;2023-12-29T13:49:13;307.60;2304.00
57030;DHT22;42920;45.306;20.448;2023-12-29T13:51:40;307.60;2304.00
57030;DHT22;42920;45.306;20.448;2023-12-29T13:54:07;307.60;2304.00
57030;DHT22;42920;45.306;20.448;2023-12-29T13:56:33;307.60;2304.00
57030;DHT22;42920;45.306;20.448;2023-12-29T13:58:58;307.60;2304.00
57030;DHT22;42920;45.306;20.448;2023-12-29T14:01:36;307.60;2304.00
57030;DHT22;42920;45.306;20.448;2023-12-29T14:04:03;307.60;2304.00
57030;DHT22;42920;45.306;20.448;2023-12-29T14:06:36;307.60;2304.00
57030;DHT22;42920;45.306;20.448;2023-12-29T14:09:02;307.60;2304.00
57030;DHT22;42920;45.306;20.448;2023-12-29T14:11:29;307.60;2304.00
57030;DHT22;42920;45.306;20.448;2023-12-29T14:13:56;307.60;2304.00
57030;DHT22;42920;45.306;20.448;2023-12-29T14:16:21;307.50;2304.00
57030;DHT22;42920;45.306;20.448;2023-12-29T14:21:20;307.50;2304.00
57030;DHT22;42920;45.306;20.448;2023-12-29T14:23:56;307.50;2304.00
57030;DHT22;42920;45.306;20.448;2023-12-29T14:26:22;307.50;2304.00
57030;DHT22;42920;45.306;20.448;2023-12-29T14:28:59;307.50;2304.00
57030;DHT22;42920;45.306;20.448;2023-12-29T14:31:25;307.50;2304.00
57030;DHT22;42920;45.306;20.448;2023-12-29T14:33:50;307.50;2304.00
57030;DHT22;42920;45.306;20.448;2023-12-29T14:36:16;307.40;2304.00
57030;DHT22;42920;45.306;20.448;2023-12-29T14:38:41;307.40;2304.00
57030;DHT22;42920;45.306;20.448;2023-12-29T14:41:07;307.50;2304.00
57030;DHT22;42920;45.306;20.448;2023-12-29T14:43:32;307.60;2304.00
57030;DHT22;42920;45.306;20.448;2023-12-29T14:45:58;307.50;2304.00
57030;DHT22;42920;45.306;20.448;2023-12-29T14:48:24;307.40;2304.00
57030;DHT22;42920;45.306;20.448;2023-12-29T14:50:50;307.40;2304.00
57030;DHT22;42920;45.306;20.448;2023-12-29T14:53:15;307.30;2304.00
57030;DHT22;42920;45.306;20.448;2023-12-29T14:55:41;307.30;2304.00
57030;DHT22;42920;45.306;20.448;2023-12-29T14:58:07;307.30;2304.00
57030;DHT22;42920;45.306;20.448;2023-12-29T15:00:32;307.30;2304.00
57030;DHT22;42920;45.306;20.448;2023-12-29T15:02:58;307.20;2304.00
57030;DHT22;42920;45.306;20.448;2023-12-29T15:05:24;307.30;2304.00
57030;DHT22;42920;45.306;20.448;2023-12-29T15:07:49;307.30;2304.00